sensor_id;sensor_type;location;lat;lon;timestamp;temperature;humidity
5200;DHT22;2619;47.868;11.892;2023-12-14T07:44:46;4.00;99.90
5200;DHT22;2619;47.868;11.892;2023-12-14T07:47:12;4.00;99.90
5200;DHT22;2619;47.868;11.892;2023-12-14T07:49:37;4.00;99.90
5200;DHT22;2619;47.868;11.892;2023-12-14T07:52:03;4.00;99.90
5200;DHT22;2619;47.868;11.892;2023-12-14T07:54:29;4.10;99.90
5200;DHT22;2619;47.868;11.892;2023-12-14T07:56:54;4.10;99.90
5200;DHT22;2619;47.868;11.892;2023-12-14T07:59:20;4.10;99.90
5200;DHT22;2619;47.868;11.892;2023-12-14T08:01:46;4.10;99.90
5200;DHT22;2619;47.868;11.892;2023-12-14T08:04:12;4.10;99.90
5200;DHT22;2619;47.868;11.892;2023-12-14T08:06:38;4.10;99.90
5200;DHT22;2619;47.868;11.892;2023-12-14T08:09:05;4.20;99.90
5200;DHT22;2619;47.868;11.892;2023-12-14T08:11:31;4.20;99.90
5200;DHT22;2619;47.868;11.892;2023-12-14T08:13:57;4.20;99.90
5200;DHT22;2619;47.868;11.892;2023-12-14T08:16:22;4.30;99.90
5200;DHT22;2619;47.868;11.892;2023-12-14T08:18:48;4.40;99.90
5200;DHT22;2619;47.868;11.892;2023-12-14T08:21:14;4.40;99.90
5200;DHT22;2619;47.868;11.892;2023-12-14T08:23:40;4.40;99.90
5200;DHT22;2619;47.868;11.892;2023-12-14T08:26:06;4.40;99.90
5200;DHT22;2619;47.868;11.892;2023-12-14T08:28:33;4.50;99.90
5200;DHT22;2619;47.868;11.892;2023-12-14T08:30:59;4.50;99.90
5200;DHT22;2619;47.868;11.892;2023-12-14T08:33:28;4.60;99.90
5200;DHT22;2619;47.868;11.892;2023-12-14T08:35:53;4.70;99.90
5200;DHT22;2619;47.868;11.892;2023-12-14T08:38:19;4.70;99.90
5200;DHT22;2619;47.868;11.892;2023-12-14T08:40:44;4.80;99.90
5200;DHT22;2619;47.868;11.892;2023-12-14T08:43:10;4.70;99.90
5200;DHT22;2619;47.868;11.892;2023-12-14T08:45:36;4.80;99.90
5200;DHT22;2619;47.868;11.892;2023-12-14T08:48:01;4.90;99.90
5200;DHT22;2619;47.868;11.892;2023-12-14T08:50:27;5.00;99.90
5200;DHT22;2619;47.868;11.892;2023-12-14T08:52:52;5.10;99.90
5200;DHT22;2619;47.868;11.892;2023-12-14T08:55:18;5.10;99.90
5200;DHT22;2619;47.868;11.892;2023-12-14T08:57:44;5.20;99.90
5200;DHT22;2619;47.868;11.892;2023-12-14T09:00:10;5.20;99.90
5200;DHT22;2619;47.868;11.892;2023-12-14T09:02:36;5.30;99.90
5200;DHT22;2619;47.868;11.892;2023-12-14T09:05:02;5.30;99.90
5200;DHT22;2619;47.868;11.892;2023-12-14T09:07:28;5.30;99.90
5200;DHT22;2619;47.868;11.892;2023-12-14T09:09:53;5.30;99.90
5200;DHT22;2619;47.868;11.892;2023-12-14T09:12:19;5.20;99.90
5200;DHT22;2619;47.868;11.892;2023-12-14T09:14:45;5.60;99.90
5200;DHT22;2619;47.868;11.892;2023-12-14T09:17:10;5.30;99.90
5200;DHT22;2619;47.868;11.892;2023-12-14T09:19:36;5.30;99.90
5200;DHT22;2619;47.868;11.892;2023-12-14T09:22:01;5.30;99.90
5200;DHT22;2619;47.868;11.892;2023-12-14T09:24:27;5.40;99.90
5200;DHT22;2619;47.868;11.892;2023-12-14T09:26:53;5.40;99.90
5200;DHT22;2619;47.868;11.892;2023-12-14T09:29:18;5.00;99.90
5200;DHT22;2619;47.868;11.892;2023-12-14T09:31:45;5.10;99.90
5200;DHT22;2619;47.868;11.892;2023-12-14T09:34:11;5.50;99.90
5200;DHT22;2619;47.868;11.892;2023-12-14T09:36:37;4.10;99.90
5200;DHT22;2619;47.868;11.892;2023-12-14T09:39:03;6.00;99.90
5200;DHT22;2619;47.868;11.892;2023-12-14T09:43:54;5.60;99.90
5200;DHT22;2619;47.868;11.892;2023-12-14T09:46:21;5.60;99.90
5200;DHT22;2619;47.868;11.892;2023-12-14T09:48:47;5.60;99.90
5200;DHT22;2619;47.868;11.892;2023-12-14T09:51:16;5.70;99.90
5200;DHT22;2619;47.868;11.892;2023-12-14T09:53:42;5.80;99.90
5200;DHT22;2619;47.868;11.892;2023-12-14T09:56:08;5.90;99.90
5200;DHT22;2619;47.868;11.892;2023-12-14T09:58:33;6.00;99.90
5200;DHT22;2619;47.868;11.892;2023-12-14T10:00:59;6.20;99.90
5200;DHT22;2619;47.868;11.892;2023-12-14T10:03:30;6.50;99.90
5200;DHT22;2619;47.868;11.892;2023-12-14T10:05:58;6.70;99.90
5200;DHT22;2619;47.868;11.892;2023-12-14T10:08:25;7.00;99.90
5200;DHT22;2619;47.868;11.892;2023-12-14T10:13:20;7.30;99.90
5200;DHT22;2619;47.868;11.892;2023-12-14T10:15:47;7.30;99.90
5200;DHT22;2619;47.868;11.892;2023-12-14T10:18:23;7.30;99.90
5200;DHT22;2619;47.868;11.892;2023-12-14T10:20:51;7.00;99.90
5200;DHT22;2619;47.868;11.892;2023-12-14T10:23:18;6.80;99.90
5200;DHT22;2619;47.868;11.892;2023-12-14T10:25:44;6.60;99.90
5200;DHT22;2619;47.868;11.892;2023-12-14T10:28:15;6.70;99.90
5200;DHT22;2619;47.868;11.892;2023-12-14T10:30:42;6.70;99.90
5200;DHT22;2619;47.868;11.892;2023-12-14T10:33:08;6.60;99.90
5200;DHT22;2619;47.868;11.892;2023-12-14T10:35:34;6.70;99.90
5200;DHT22;2619;47.868;11.892;2023-12-14T10:38:03;6.70;99.90
5200;DHT22;2619;47.868;11.892;2023-12-14T10:40:31;6.60;99.90
5200;DHT22;2619;47.868;11.892;2023-12-14T10:42:59;6.60;99.90
5200;DHT22;2619;47.868;11.892;2023-12-14T10:45:29;6.60;99.90
5200;DHT22;2619;47.868;11.892;2023-12-14T10:47:57;6.50;99.90
5200;DHT22;2619;47.868;11.892;2023-12-14T10:50:23;6.30;99.90
5200;DHT22;2619;47.868;11.892;2023-12-14T10:52:49;6.00;99.90
5200;DHT22;2619;47.868;11.892;2023-12-14T10:55:40;5.80;99.90
5200;DHT22;2619;47.868;11.892;2023-12-14T10:58:08;5.80;99.90
5200;DHT22;2619;47.868;11.892;2023-12-14T11:00:35;5.80;99.90
5200;DHT22;2619;47.868;11.892;2023-12-14T11:03:04;5.80;99.90
5200;DHT22;2619;47.868;11.892;2023-12-14T11:05:32;5.80;99.90
5200;DHT22;2619;47.868;11.892;2023-12-14T11:08:05;5.80;99.90
5200;DHT22;2619;47.868;11.892;2023-12-14T11:10:42;5.80;99.90
5200;DHT22;2619;47.868;11.892;2023-12-14T11:13:13;5.90;99.90
5200;DHT22;2619;47.868;11.892;2023-12-14T11:15:50;5.90;99.90
5200;DHT22;2619;47.868;11.892;2023-12-14T11:18:22;5.90;99.90
5200;DHT22;2619;47.868;11.892;2023-12-14T11:20:51;5.90;99.90
5200;DHT22;2619;47.868;11.892;2023-12-14T11:25:52;5.90;99.90
5200;DHT22;2619;47.868;11.892;2023-12-14T11:28:19;6.10;99.90
5200;DHT22;2619;47.868;11.892;2023-12-14T11:30:46;6.10;99.90
5200;DHT22;2619;47.868;11.892;2023-12-14T11:33:13;6.20;99.90
5200;DHT22;2619;47.868;11.892;2023-12-14T11:35:39;6.30;99.90
5200;DHT22;2619;47.868;11.892;2023-12-14T11:38:05;6.20;99.90
5200;DHT22;2619;47.868;11.892;2023-12-14T11:40:39;6.20;99.90
5200;DHT22;2619;47.868;11.892;2023-12-14T11:43:05;6.20;99.90
5200;DHT22;2619;47.868;11.892;2023-12-14T11:45:39;6.10;99.90
5200;DHT22;2619;47.868;11.892;2023-12-14T11:48:07;5.90;99.90
5200;DHT22;2619;47.868;11.892;2023-12-14T11:50:33;5.90;99.90
5200;DHT22;2619;47.868;11.892;2023-12-14T11:53:00;5.90;99.90
5200;DHT22;2619;47.868;11.892;2023-12-14T11:55:26;5.90;99.90
5200;DHT22;2619;47.868;11.892;2023-12-14T11:57:52;5.80;99.90
5200;DHT22;2619;47.868;11.892;2023-12-14T12:00:26;5.80;99.90
5200;DHT22;2619;47.868;11.892;2023-12-14T12:02:52;5.80;99.90
5200;DHT22;2619;47.868;11.892;2023-12-14T12:05:35;5.70;99.90
5200;DHT22;2619;47.868;11.892;2023-12-14T12:08:01;5.70;99.90
5200;DHT22;2619;47.868;11.892;2023-12-14T12:10:27;5.70;99.90
5200;DHT22;2619;47.868;11.892;2023-12-14T12:13:04;5.70;99.90
5200;DHT22;2619;47.868;11.892;2023-12-14T12:15:33;5.70;99.90
5200;DHT22;2619;47.868;11.892;2023-12-14T12:18:05;5.80;99.90
5200;DHT22;2619;47.868;11.892;2023-12-14T12:20:31;5.80;99.90
5200;DHT22;2619;47.868;11.892;2023-12-14T12:22:58;5.90;99.90
5200;DHT22;2619;47.868;11.892;2023-12-14T12:25:23;5.80;99.90
5200;DHT22;2619;47.868;11.892;2023-12-14T12:27:49;5.90;99.90
5200;DHT22;2619;47.868;11.892;2023-12-14T12:30:15;5.90;99.90
5200;DHT22;2619;47.868;11.892;2023-12-14T12:32:41;5.90;99.90
5200;DHT22;2619;47.868;11.892;2023-12-14T12:35:07;5.90;99.90
5200;DHT22;2619;47.868;11.892;2023-12-14T12:37:33;6.00;99.90
5200;DHT22;2619;47.868;11.892;2023-12-14T12:39:59;6.00;99.90
5200;DHT22;2619;47.868;11.892;2023-12-14T12:42:24;6.10;99.90
5200;DHT22;2619;47.868;11.892;2023-12-14T12:44:51;6.10;99.90
5200;DHT22;2619;47.868;11.892;2023-12-14T12:47:16;6.10;99.90
5200;DHT22;2619;47.868;11.892;2023-12-14T12:49:42;6.10;99.90
5200;DHT22;2619;47.868;11.892;2023-12-14T12:52:09;6.10;99.90
5200;DHT22;2619;47.868;11.892;2023-12-14T12:54:35;6.20;99.90
5200;DHT22;2619;47.868;11.892;2023-12-14T12:57:00;6.30;99.90
5200;DHT22;2619;47.868;11.892;2023-12-14T12:59:26;6.30;99.90
5200;DHT22;2619;47.868;11.892;2023-12-14T13:01:53;6.30;99.90
5200;DHT22;2619;47.868;11.892;2023-12-14T13:04:20;6.30;99.90
5200;DHT22;2619;47.868;11.892;2023-12-14T13:06:47;6.20;99.90
5200;DHT22;2619;47.868;11.892;2023-12-14T13:09:14;6.20;99.90
5200;DHT22;2619;47.868;11.892;2023-12-14T13:11:40;6.10;99.90
5200;DHT22;2619;47.868;11.892;2023-12-14T13:14:05;6.10;99.90
5200;DHT22;2619;47.868;11.892;2023-12-14T13:16:34;6.10;99.90
5200;DHT22;2619;47.868;11.892;2023-12-14T13:18:59;6.20;99.90
5200;DHT22;2619;47.868;11.892;2023-12-14T13:21:25;6.30;99.90
5200;DHT22;2619;47.868;11.892;2023-12-14T13:26:17;6.40;99.90
5200;DHT22;2619;47.868;11.892;2023-12-14T13:28:42;6.50;99.90
5200;DHT22;2619;47.868;11.892;2023-12-14T13:31:08;6.50;99.90
5200;DHT22;2619;47.868;11.892;2023-12-14T13:33:33;6.50;99.90
5200;DHT22;2619;47.868;11.892;2023-12-14T13:35:59;6.40;99.90
5200;DHT22;2619;47.868;11.892;2023-12-14T13:38:25;6.40;99.90
5200;DHT22;2619;47.868;11.892;2023-12-14T13:40:50;6.50;99.90
5200;DHT22;2619;47.868;11.892;2023-12-14T13:43:16;6.30;99.90
5200;DHT22;2619;47.868;11.892;2023-12-14T13:45:41;6.30;99.90
5200;DHT22;2619;47.868;11.892;2023-12-14T13:48:08;6.20;99.90
5200;DHT22;2619;47.868;11.892;2023-12-14T13:50:33;6.10;99.90
5200;DHT22;2619;47.868;11.892;2023-12-14T13:53:00;6.10;99.90
5200;DHT22;2619;47.868;11.892;2023-12-14T13:55:25;6.00;99.90
5200;DHT22;2619;47.868;11.892;2023-12-14T13:57:51;5.80;99.90
5200;DHT22;2619;47.868;11.892;2023-12-14T14:00:17;5.80;99.90
5200;DHT22;2619;47.868;11.892;2023-12-14T14:02:44;5.70;99.90
5200;DHT22;2619;47.868;11.892;2023-12-14T14:05:10;5.70;99.90
5200;DHT22;2619;47.868;11.892;2023-12-14T14:07:35;5.60;99.90
5200;DHT22;2619;47.868;11.892;2023-12-14T14:10:01;5.60;99.90
5200;DHT22;2619;47.868;11.892;2023-12-14T14:12:27;5.60;99.90
5200;DHT22;2619;47.868;11.892;2023-12-14T14:14:52;5.60;99.90
5200;DHT22;2619;47.868;11.892;2023-12-14T14:17:18;5.60;99.90
5200;DHT22;2619;47.868;11.892;2023-12-14T14:19:43;5.50;99.90
5200;DHT22;2619;47.868;11.892;2023-12-14T14:22:09;5.40;99.90
5200;DHT22;2619;47.868;11.892;2023-12-14T14:24:34;5.50;99.90
5200;DHT22;2619;47.868;11.892;2023-12-14T14:27:01;5.50;99.90
5200;DHT22;2619;47.868;11.892;2023-12-14T14:29:26;5.40;99.90
5200;DHT22;2619;47.868;11.892;2023-12-14T14:31:52;5.40;99.90
5200;DHT22;2619;47.868;11.892;2023-12-14T14:34:17;5.30;99.90
5200;DHT22;2619;47.868;11.892;2023-12-14T14:36:43;5.30;99.90
5200;DHT22;2619;47.868;11.892;2023-12-14T14:39:10;5.30;99.90
5200;DHT22;2619;47.868;11.892;2023-12-14T14:41:36;5.30;99.90
5200;DHT22;2619;47.868;11.892;2023-12-14T14:44:01;5.30;99.90
5200;DHT22;2619;47.868;11.892;2023-12-14T14:46:27;5.20;99.90
5200;DHT22;2619;47.868;11.892;2023-12-14T14:48:53;5.20;99.90
5200;DHT22;2619;47.868;11.892;2023-12-14T14:51:19;5.20;99.90
5200;DHT22;2619;47.868;11.892;2023-12-14T14:53:44;5.20;99.90
5200;DHT22;2619;47.868;11.892;2023-12-14T14:56:10;5.10;99.90
5200;DHT22;2619;47.868;11.892;2023-12-14T14:58:36;5.00;99.90
5200;DHT22;2619;47.868;11.892;2023-12-14T15:01:01;5.00;99.90
5200;DHT22;2619;47.868;11.892;2023-12-14T15:03:27;5.00;99.90
5200;DHT22;2619;47.868;11.892;2023-12-14T15:05:53;5.00;99.90
5200;DHT22;2619;47.868;11.892;2023-12-14T15:08:18;5.00;99.90
5200;DHT22;2619;47.868;11.892;2023-12-14T15:10:44;4.90;99.90
5200;DHT22;2619;47.868;11.892;2023-12-14T15:13:10;4.90;99.90
5200;DHT22;2619;47.868;11.892;2023-12-14T15:15:36;5.00;99.90
5200;DHT22;2619;47.868;11.892;2023-12-14T15:18:03;5.00;99.90
5200;DHT22;2619;47.868;11.892;2023-12-14T15:20:29;5.00;99.90
5200;DHT22;2619;47.868;11.892;2023-12-14T15:22:55;5.00;99.90
5200;DHT22;2619;47.868;11.892;2023-12-14T15:25:20;5.00;99.90
5200;DHT22;2619;47.868;11.892;2023-12-14T15:27:46;5.00;99.90
5200;DHT22;2619;47.868;11.892;2023-12-14T15:30:12;4.90;99.90
5200;DHT22;2619;47.868;11.892;2023-12-14T15:32:37;4.90;99.90
5200;DHT22;2619;47.868;11.892;2023-12-14T15:35:03;4.80;99.90
5200;DHT22;2619;47.868;11.892;2023-12-14T15:37:29;4.80;99.90
5200;DHT22;2619;47.868;11.892;2023-12-14T15:39:54;4.80;99.90
5200;DHT22;2619;47.868;11.892;2023-12-14T15:42:20;4.80;99.90
5200;DHT22;2619;47.868;11.892;2023-12-14T15:44:46;4.80;99.90
5200;DHT22;2619;47.868;11.892;2023-12-14T15:47:12;4.80;99.90
5200;DHT22;2619;47.868;11.892;2023-12-14T15:49:38;4.70;99.90
5200;DHT22;2619;47.868;11.892;2023-12-14T15:52:03;4.70;99.90
5200;DHT22;2619;47.868;11.892;2023-12-14T15:54:29;4.60;99.90
5200;DHT22;2619;47.868;11.892;2023-12-14T15:56:55;4.50;99.90
5200;DHT22;2619;47.868;11.892;2023-12-14T15:59:20;4.50;99.90
5200;DHT22;2619;47.868;11.892;2023-12-14T16:01:46;4.50;99.90
5200;DHT22;2619;47.868;11.892;2023-12-14T16:04:11;4.40;99.90
5200;DHT22;2619;47.868;11.892;2023-12-14T16:06:37;4.40;99.90
5200;DHT22;2619;47.868;11.892;2023-12-14T16:09:03;4.40;99.90
5200;DHT22;2619;47.868;11.892;2023-12-14T16:11:29;4.30;99.90
5200;DHT22;2619;47.868;11.892;2023-12-14T16:13:54;4.30;99.90
5200;DHT22;2619;47.868;11.892;2023-12-14T16:16:22;4.20;99.90
5200;DHT22;2619;47.868;11.892;2023-12-14T16:18:48;4.20;99.90
5200;DHT22;2619;47.868;11.892;2023-12-14T16:21:14;4.20;99.90
5200;DHT22;2619;47.868;11.892;2023-12-14T16:23:39;4.20;99.90
5200;DHT22;2619;47.868;11.892;2023-12-14T16:26:06;4.10;99.90
5200;DHT22;2619;47.868;11.892;2023-12-14T16:28:33;4.10;99.90
5200;DHT22;2619;47.868;11.892;2023-12-14T16:31:04;4.20;99.90
5200;DHT22;2619;47.868;11.892;2023-12-14T16:33:31;4.20;99.90
5200;DHT22;2619;47.868;11.892;2023-12-14T16:35:56;4.30;99.90
5200;DHT22;2619;47.868;11.892;2023-12-14T16:38:22;4.30;99.90
5200;DHT22;2619;47.868;11.892;2023-12-14T16:40:48;4.30;99.90
5200;DHT22;2619;47.868;11.892;2023-12-14T16:43:14;4.40;99.90
5200;DHT22;2619;47.868;11.892;2023-12-14T16:45:44;4.40;99.90
5200;DHT22;2619;47.868;11.892;2023-12-14T16:48:10;4.50;99.90
5200;DHT22;2619;47.868;11.892;2023-12-14T16:50:36;4.50;99.90
5200;DHT22;2619;47.868;11.892;2023-12-14T16:53:02;4.60;99.90
5200;DHT22;2619;47.868;11.892;2023-12-14T16:55:28;4.60;99.90
5200;DHT22;2619;47.868;11.892;2023-12-14T16:57:54;4.60;99.90
5200;DHT22;2619;47.868;11.892;2023-12-14T17:00:20;4.60;99.90
5200;DHT22;2619;47.868;11.892;2023-12-14T17:02:45;4.60;99.90
5200;DHT22;2619;47.868;11.892;2023-12-14T17:05:11;4.60;99.90
5200;DHT22;2619;47.868;11.892;2023-12-14T17:07:37;4.60;99.90
5200;DHT22;2619;47.868;11.892;2023-12-14T17:10:03;4.60;99.90
5200;DHT22;2619;47.868;11.892;2023-12-14T17:12:29;4.60;99.90
5200;DHT22;2619;47.868;11.892;2023-12-14T17:14:55;4.50;99.90
5200;DHT22;2619;47.868;11.892;2023-12-14T17:17:21;4.50;99.90
5200;DHT22;2619;47.868;11.892;2023-12-14T17:19:47;4.50;99.90
5200;DHT22;2619;47.868;11.892;2023-12-14T17:22:13;4.50;99.90
5200;DHT22;2619;47.868;11.892;2023-12-14T17:24:39;4.50;99.90
5200;DHT22;2619;47.868;11.892;2023-12-14T17:27:04;4.50;99.90
5200;DHT22;2619;47.868;11.892;2023-12-14T17:29:30;4.50;99.90
5200;DHT22;2619;47.868;11.892;2023-12-14T17:31:55;4.50;99.90
5200;DHT22;2619;47.868;11.892;2023-12-14T17:34:23;4.50;99.90
5200;DHT22;2619;47.868;11.892;2023-12-14T17:36:51;4.50;99.90
5200;DHT22;2619;47.868;11.892;2023-12-14T17:39:17;4.40;99.90
5200;DHT22;2619;47.868;11.892;2023-12-14T17:41:45;4.40;99.90
5200;DHT22;2619;47.868;11.892;2023-12-14T17:44:11;4.40;99.90
5200;DHT22;2619;47.868;11.892;2023-12-14T17:46:37;4.40;99.90
5200;DHT22;2619;47.868;11.892;2023-12-14T17:49:02;4.40;99.90
5200;DHT22;2619;47.868;11.892;2023-12-14T17:51:28;4.30;99.90
5200;DHT22;2619;47.868;11.892;2023-12-14T17:53:54;4.40;99.90
5200;DHT22;2619;47.868;11.892;2023-12-14T17:56:20;4.30;99.90
5200;DHT22;2619;47.868;11.892;2023-12-14T17:58:46;4.40;99.90
5200;DHT22;2619;47.868;11.892;2023-12-14T18:01:13;4.40;99.90
5200;DHT22;2619;47.868;11.892;2023-12-14T18:03:39;4.40;99.90
5200;DHT22;2619;47.868;11.892;2023-12-14T18:06:04;4.30;99.90
5200;DHT22;2619;47.868;11.892;2023-12-14T18:08:30;4.40;99.90
5200;DHT22;2619;47.868;11.892;2023-12-14T18:10:56;4.40;99.90
5200;DHT22;2619;47.868;11.892;2023-12-14T18:13:22;4.30;99.90
5200;DHT22;2619;47.868;11.892;2023-12-14T18:15:48;4.40;99.90
5200;DHT22;2619;47.868;11.892;2023-12-14T18:18:13;4.50;99.90
5200;DHT22;2619;47.868;11.892;2023-12-14T18:20:39;4.50;99.90
5200;DHT22;2619;47.868;11.892;2023-12-14T18:23:04;4.50;99.90
5200;DHT22;2619;47.868;11.892;2023-12-14T18:25:31;4.50;99.90
5200;DHT22;2619;47.868;11.892;2023-12-14T18:27:57;4.50;99.90
5200;DHT22;2619;47.868;11.892;2023-12-14T18:30:27;4.60;99.90
5200;DHT22;2619;47.868;11.892;2023-12-14T18:32:53;4.50;99.90
5200;DHT22;2619;47.868;11.892;2023-12-14T18:35:19;4.50;99.90
5200;DHT22;2619;47.868;11.892;2023-12-14T18:37:44;4.50;99.90
5200;DHT22;2619;47.868;11.892;2023-12-14T18:40:10;4.50;99.90
5200;DHT22;2619;47.868;11.892;2023-12-14T18:42:36;4.50;99.90
5200;DHT22;2619;47.868;11.892;2023-12-14T18:45:01;4.50;99.90
5200;DHT22;2619;47.868;11.892;2023-12-14T18:47:28;4.60;99.90
5200;DHT22;2619;47.868;11.892;2023-12-14T18:49:55;4.60;99.90
5200;DHT22;2619;47.868;11.892;2023-12-14T18:52:21;4.60;99.90
5200;DHT22;2619;47.868;11.892;2023-12-14T18:54:47;4.60;99.90
5200;DHT22;2619;47.868;11.892;2023-12-14T18:57:12;4.60;99.90
5200;DHT22;2619;47.868;11.892;2023-12-14T18:59:38;4.60;99.90
5200;DHT22;2619;47.868;11.892;2023-12-14T19:02:04;4.60;99.90
5200;DHT22;2619;47.868;11.892;2023-12-14T19:04:30;4.60;99.90
5200;DHT22;2619;47.868;11.892;2023-12-14T19:06:55;4.60;99.90
5200;DHT22;2619;47.868;11.892;2023-12-14T19:09:21;4.60;99.90
5200;DHT22;2619;47.868;11.892;2023-12-14T19:11:47;4.60;99.90
5200;DHT22;2619;47.868;11.892;2023-12-14T19:14:13;4.60;99.90
5200;DHT22;2619;47.868;11.892;2023-12-14T19:16:38;4.60;99.90
5200;DHT22;2619;47.868;11.892;2023-12-14T19:19:04;4.60;99.90
5200;DHT22;2619;47.868;11.892;2023-12-14T19:21:29;4.60;99.90
5200;DHT22;2619;47.868;11.892;2023-12-14T19:23:55;4.70;99.90
5200;DHT22;2619;47.868;11.892;2023-12-14T19:26:22;4.70;99.90
5200;DHT22;2619;47.868;11.892;2023-12-14T19:28:52;4.70;99.90
5200;DHT22;2619;47.868;11.892;2023-12-14T19:31:19;4.70;99.90
5200;DHT22;2619;47.868;11.892;2023-12-14T19:33:45;4.60;99.90
5200;DHT22;2619;47.868;11.892;2023-12-14T19:36:12;4.60;99.90
5200;DHT22;2619;47.868;11.892;2023-12-14T19:38:39;4.60;99.90
5200;DHT22;2619;47.868;11.892;2023-12-14T19:41:05;4.60;99.90
5200;DHT22;2619;47.868;11.892;2023-12-14T19:43:39;4.50;99.90
5200;DHT22;2619;47.868;11.892;2023-12-14T19:46:07;4.60;99.90
5200;DHT22;2619;47.868;11.892;2023-12-14T19:48:33;4.50;99.90
5200;DHT22;2619;47.868;11.892;2023-12-14T19:50:58;4.50;99.90
5200;DHT22;2619;47.868;11.892;2023-12-14T19:53:25;4.40;99.90
5200;DHT22;2619;47.868;11.892;2023-12-14T19:55:51;4.40;99.90
5200;DHT22;2619;47.868;11.892;2023-12-14T19:58:17;4.40;99.90
5200;DHT22;2619;47.868;11.892;2023-12-14T20:00:42;4.40;99.90
5200;DHT22;2619;47.868;11.892;2023-12-14T20:03:11;4.40;99.90
5200;DHT22;2619;47.868;11.892;2023-12-14T20:05:38;4.30;99.90
5200;DHT22;2619;47.868;11.892;2023-12-14T20:08:06;4.30;99.90
5200;DHT22;2619;47.868;11.892;2023-12-14T20:10:31;4.20;99.90
5200;DHT22;2619;47.868;11.892;2023-12-14T20:12:57;4.10;99.90
5200;DHT22;2619;47.868;11.892;2023-12-14T20:15:23;4.00;99.90
5200;DHT22;2619;47.868;11.892;2023-12-14T20:17:49;3.90;99.90
5200;DHT22;2619;47.868;11.892;2023-12-14T20:20:15;3.90;99.90
5200;DHT22;2619;47.868;11.892;2023-12-14T20:22:40;4.00;99.90
5200;DHT22;2619;47.868;11.892;2023-12-14T20:25:06;4.00;99.90
5200;DHT22;2619;47.868;11.892;2023-12-14T20:27:32;4.00;99.90
5200;DHT22;2619;47.868;11.892;2023-12-14T20:29:58;4.00;99.90
5200;DHT22;2619;47.868;11.892;2023-12-14T20:32:24;4.10;99.90
5200;DHT22;2619;47.868;11.892;2023-12-14T20:34:49;4.00;99.90
5200;DHT22;2619;47.868;11.892;2023-12-14T20:37:15;4.00;99.90
5200;DHT22;2619;47.868;11.892;2023-12-14T20:39:41;4.00;99.90
5200;DHT22;2619;47.868;11.892;2023-12-14T20:42:06;4.00;99.90
5200;DHT22;2619;47.868;11.892;2023-12-14T20:44:32;3.90;99.90
5200;DHT22;2619;47.868;11.892;2023-12-14T20:46:57;3.90;99.90
5200;DHT22;2619;47.868;11.892;2023-12-14T20:49:23;3.80;99.90
5200;DHT22;2619;47.868;11.892;2023-12-14T20:51:49;3.80;99.90
5200;DHT22;2619;47.868;11.892;2023-12-14T20:54:14;3.90;99.90
5200;DHT22;2619;47.868;11.892;2023-12-14T20:56:40;3.80;99.90
5200;DHT22;2619;47.868;11.892;2023-12-14T20:59:05;3.90;99.90
5200;DHT22;2619;47.868;11.892;2023-12-14T21:01:31;3.90;99.90
5200;DHT22;2619;47.868;11.892;2023-12-14T21:03:57;4.00;99.90
5200;DHT22;2619;47.868;11.892;2023-12-14T21:06:23;4.00;99.90
5200;DHT22;2619;47.868;11.892;2023-12-14T21:08:49;4.10;99.90
5200;DHT22;2619;47.868;11.892;2023-12-14T21:11:14;4.10;99.90
5200;DHT22;2619;47.868;11.892;2023-12-14T21:13:40;4.10;99.90
5200;DHT22;2619;47.868;11.892;2023-12-14T21:16:06;4.10;99.90
5200;DHT22;2619;47.868;11.892;2023-12-14T21:18:32;4.10;99.90
5200;DHT22;2619;47.868;11.892;2023-12-14T21:20:58;4.10;99.90
5200;DHT22;2619;47.868;11.892;2023-12-14T21:23:24;4.10;99.90
5200;DHT22;2619;47.868;11.892;2023-12-14T21:25:49;4.20;99.90
5200;DHT22;2619;47.868;11.892;2023-12-14T21:28:31;4.20;99.90
5200;DHT22;2619;47.868;11.892;2023-12-14T21:30:59;4.30;99.90
5200;DHT22;2619;47.868;11.892;2023-12-14T21:33:26;4.30;99.90
5200;DHT22;2619;47.868;11.892;2023-12-14T21:35:52;4.30;99.90
5200;DHT22;2619;47.868;11.892;2023-12-14T21:38:19;4.20;99.90
5200;DHT22;2619;47.868;11.892;2023-12-14T21:40:46;4.30;99.90
5200;DHT22;2619;47.868;11.892;2023-12-14T21:43:11;4.30;99.90
5200;DHT22;2619;47.868;11.892;2023-12-14T21:45:37;4.30;99.90
5200;DHT22;2619;47.868;11.892;2023-12-14T21:48:03;4.30;99.90
5200;DHT22;2619;47.868;11.892;2023-12-14T21:50:28;4.30;99.90
5200;DHT22;2619;47.868;11.892;2023-12-14T21:52:54;4.30;99.90
5200;DHT22;2619;47.868;11.892;2023-12-14T21:55:19;4.30;99.90
5200;DHT22;2619;47.868;11.892;2023-12-14T21:57:45;4.20;99.90
5200;DHT22;2619;47.868;11.892;2023-12-14T22:00:11;4.10;99.90
5200;DHT22;2619;47.868;11.892;2023-12-14T22:02:37;4.00;99.90
5200;DHT22;2619;47.868;11.892;2023-12-14T22:05:03;4.00;99.90
5200;DHT22;2619;47.868;11.892;2023-12-14T22:07:28;4.00;99.90
5200;DHT22;2619;47.868;11.892;2023-12-14T22:09:54;4.00;99.90
5200;DHT22;2619;47.868;11.892;2023-12-14T22:12:19;4.00;99.90
5200;DHT22;2619;47.868;11.892;2023-12-14T22:14:45;3.90;99.90
5200;DHT22;2619;47.868;11.892;2023-12-14T22:17:11;3.90;99.90
5200;DHT22;2619;47.868;11.892;2023-12-14T22:19:36;3.90;99.90
5200;DHT22;2619;47.868;11.892;2023-12-14T22:22:02;3.90;99.90
5200;DHT22;2619;47.868;11.892;2023-12-14T22:24:29;3.90;99.90
5200;DHT22;2619;47.868;11.892;2023-12-14T22:26:54;3.90;99.90
5200;DHT22;2619;47.868;11.892;2023-12-14T22:29:20;3.90;99.90
5200;DHT22;2619;47.868;11.892;2023-12-14T22:31:45;3.80;99.90
5200;DHT22;2619;47.868;11.892;2023-12-14T22:34:11;3.90;99.90
5200;DHT22;2619;47.868;11.892;2023-12-14T22:36:36;3.90;99.90
5200;DHT22;2619;47.868;11.892;2023-12-14T22:39:02;3.90;99.90
5200;DHT22;2619;47.868;11.892;2023-12-14T22:41:29;3.90;99.90
5200;DHT22;2619;47.868;11.892;2023-12-14T22:43:54;3.90;99.90
5200;DHT22;2619;47.868;11.892;2023-12-14T22:46:20;3.90;99.90
5200;DHT22;2619;47.868;11.892;2023-12-14T22:48:46;3.90;99.90
5200;DHT22;2619;47.868;11.892;2023-12-14T22:51:16;4.00;99.90
5200;DHT22;2619;47.868;11.892;2023-12-14T22:53:42;4.00;99.90
5200;DHT22;2619;47.868;11.892;2023-12-14T22:56:08;4.00;99.90
5200;DHT22;2619;47.868;11.892;2023-12-14T22:58:33;4.00;99.90
5200;DHT22;2619;47.868;11.892;2023-12-14T23:00:59;4.00;99.90
5200;DHT22;2619;47.868;11.892;2023-12-14T23:03:24;4.00;99.90
5200;DHT22;2619;47.868;11.892;2023-12-14T23:05:50;4.00;99.90
5200;DHT22;2619;47.868;11.892;2023-12-14T23:08:16;4.00;99.90
5200;DHT22;2619;47.868;11.892;2023-12-14T23:10:43;4.00;99.90
5200;DHT22;2619;47.868;11.892;2023-12-14T23:13:08;4.00;99.90
5200;DHT22;2619;47.868;11.892;2023-12-14T23:15:34;4.00;99.90
5200;DHT22;2619;47.868;11.892;2023-12-14T23:17:59;4.00;99.90
5200;DHT22;2619;47.868;11.892;2023-12-14T23:20:25;3.90;99.90
5200;DHT22;2619;47.868;11.892;2023-12-14T23:22:50;3.90;99.90
5200;DHT22;2619;47.868;11.892;2023-12-14T23:25:16;3.90;99.90
5200;DHT22;2619;47.868;11.892;2023-12-14T23:27:42;3.90;99.90
5200;DHT22;2619;47.868;11.892;2023-12-14T23:30:07;3.90;99.90
5200;DHT22;2619;47.868;11.892;2023-12-14T23:32:33;3.90;99.90
5200;DHT22;2619;47.868;11.892;2023-12-14T23:34:59;4.00;99.90
5200;DHT22;2619;47.868;11.892;2023-12-14T23:37:25;4.00;99.90
5200;DHT22;2619;47.868;11.892;2023-12-14T23:39:50;4.00;99.90
5200;DHT22;2619;47.868;11.892;2023-12-14T23:42:16;4.00;99.90
5200;DHT22;2619;47.868;11.892;2023-12-14T23:44:42;4.00;99.90
5200;DHT22;2619;47.868;11.892;2023-12-14T23:47:07;3.90;99.90
5200;DHT22;2619;47.868;11.892;2023-12-14T23:49:34;4.00;99.90